Time;durP1;ratioP1;P1;durP2;ratioP2;P2;SDS_P1;SDS_P2;PMS_P1;PMS_P2;Temp;Humidity;BMP_temperature;BMP_pressure;BME280_temperature;BME280_humidity;BME280_pressure;Samples;Min_cycle;Max_cycle;Signal;HPM_P1;HPM_P2
2022/04/02 00:02:17;;;;;;;21.20;16.80;;;;;;;-1.07;100.00;94924.38;5105156;27;20024;-74
2022/04/02 00:04:43;;;;;;;22.87;16.07;;;;;;;-1.13;100.00;94924.03;5107910;28;20035;-74
2022/04/02 00:07:08;;;;;;;20.93;16.23;;;;;;;-1.12;100.00;94917.91;5094934;28;20481;-74
2022/04/02 00:09:34;;;;;;;21.63;17.50;;;;;;;-1.16;100.00;94921.69;5107263;28;20091;-74
2022/04/02 00:12:01;;;;;;;21.73;16.67;;;;;;;-1.11;100.00;94920.34;5121472;27;20037;-75
2022/04/02 00:14:26;;;;;;;23.27;17.17;;;;;;;-1.14;100.00;94923.22;5098513;28;20457;-78
2022/04/02 00:16:52;;;;;;;22.13;16.43;;;;;;;-1.15;100.00;94928.47;5095670;28;21056;-75
2022/04/02 00:19:20;;;;;;;23.40;18.30;;;;;;;-1.16;100.00;94924.25;5107265;28;20035;-75
2022/04/02 00:21:46;;;;;;;36.03;25.33;;;;;;;-1.18;100.00;94926.94;5112641;28;20027;-75
2022/04/02 00:24:11;;;;;;;22.67;17.97;;;;;;;-1.23;100.00;94927.31;5113242;28;20446;-76
2022/04/02 00:26:38;;;;;;;25.20;17.73;;;;;;;-1.23;100.00;94927.31;5096131;28;20024;-75
2022/04/02 00:29:07;;;;;;;23.63;18.20;;;;;;;-1.14;100.00;94930.09;5105448;28;20032;-75
2022/04/02 00:31:32;;;;;;;25.17;18.87;;;;;;;-1.13;100.00;94929.19;5112450;28;20462;-75
2022/04/02 00:33:58;;;;;;;24.83;17.67;;;;;;;-1.17;100.00;94925.19;5105713;28;21075;-76
2022/04/02 00:36:24;;;;;;;25.73;19.43;;;;;;;-1.20;100.00;94921.91;5111091;28;20039;-75
2022/04/02 00:38:51;;;;;;;28.03;19.90;;;;;;;-1.21;100.00;94929.75;5097458;28;20458;-76
2022/04/02 00:41:17;;;;;;;24.37;18.93;;;;;;;-1.25;100.00;94929.19;5109279;28;20467;-75
2022/04/02 00:43:56;;;;;;;26.07;19.37;;;;;;;-1.28;100.00;94923.44;5111270;28;20039;-75
2022/04/02 00:46:22;;;;;;;25.50;19.30;;;;;;;-1.23;100.00;94921.34;5108001;28;20465;-75
2022/04/02 00:48:50;;;;;;;25.40;19.00;;;;;;;-1.25;100.00;94921.44;5105340;28;20524;-75
2022/04/02 00:51:16;;;;;;;25.03;18.90;;;;;;;-1.27;100.00;94923.34;5122060;28;20024;-76
2022/04/02 00:53:47;;;;;;;24.10;19.30;;;;;;;-1.27;100.00;94925.09;5103629;28;20450;-75
2022/04/02 00:56:14;;;;;;;27.93;19.40;;;;;;;-1.27;100.00;94925.91;5108268;28;20779;-76
2022/04/02 00:58:40;;;;;;;27.23;20.57;;;;;;;-1.25;100.00;94924.03;5105540;28;20572;-75
2022/04/02 01:01:12;;;;;;;23.27;18.07;;;;;;;-1.21;100.00;94920.28;5107918;28;21995;-75
2022/04/02 01:03:38;;;;;;;24.57;17.50;;;;;;;-1.26;100.00;94930.13;5111730;27;21297;-75
2022/04/02 01:06:05;;;;;;;27.07;19.13;;;;;;;-1.30;100.00;94933.88;5106873;28;20457;-75
2022/04/02 01:08:37;;;;;;;24.73;17.87;;;;;;;-1.26;100.00;94931.91;5114156;28;20027;-75
2022/04/02 01:11:03;;;;;;;24.43;18.67;;;;;;;-1.27;100.00;94931.06;5099222;28;20445;-75
2022/04/02 01:13:32;;;;;;;25.37;18.30;;;;;;;-1.26;100.00;94924.97;5110507;28;20454;-75
2022/04/02 01:16:01;;;;;;;27.43;18.17;;;;;;;-1.19;100.00;94923.53;5094869;28;20469;-75
2022/04/02 01:18:28;;;;;;;25.33;17.50;;;;;;;-1.25;100.00;94929.19;5112114;28;20473;-75
2022/04/02 01:20:54;;;;;;;23.03;17.63;;;;;;;-1.25;100.00;94933.53;5105628;28;20465;-75
2022/04/02 01:23:29;;;;;;;23.70;16.40;;;;;;;-1.29;100.00;94938.09;5109277;28;20446;-75
2022/04/02 01:26:02;;;;;;;27.87;17.67;;;;;;;-1.31;100.00;94934.84;5095027;28;20521;-75
2022/04/02 01:28:34;;;;;;;26.77;15.63;;;;;;;-1.33;100.00;94936.72;5110200;27;20469;-75
2022/04/02 01:31:04;;;;;;;24.53;16.13;;;;;;;-1.33;100.00;94936.72;5105271;28;20453;-74
2022/04/02 01:33:30;;;;;;;28.63;15.77;;;;;;;-1.46;100.00;94936.00;5111855;28;20468;-75
2022/04/02 01:36:05;;;;;;;26.87;17.33;;;;;;;-1.47;100.00;94939.53;5118055;28;20461;-74
2022/04/02 01:38:44;;;;;;;30.37;15.73;;;;;;;-1.44;100.00;94939.31;5127705;27;20027;-75
2022/04/02 01:41:11;;;;;;;23.03;15.80;;;;;;;-1.45;100.00;94946.19;5115326;28;20473;-75
2022/04/02 01:43:37;;;;;;;24.90;16.60;;;;;;;-1.51;100.00;94948.41;5114147;28;20492;-76
2022/04/02 01:46:04;;;;;;;24.90;15.70;;;;;;;-1.56;100.00;94947.97;5112493;28;21032;-75
2022/04/02 01:48:32;;;;;;;27.83;17.07;;;;;;;-1.53;100.00;94942.56;5098726;28;20031;-75
2022/04/02 01:51:03;;;;;;;23.93;15.53;;;;;;;-1.53;100.00;94935.66;5113744;28;20850;-75
2022/04/02 01:53:30;;;;;;;25.03;16.63;;;;;;;-1.52;100.00;94939.88;5102642;28;20450;-75
2022/04/02 01:55:56;;;;;;;24.37;17.13;;;;;;;-1.54;100.00;94943.50;5110329;28;20504;-76
2022/04/02 01:58:45;;;;;;;24.63;17.43;;;;;;;-1.54;100.00;94946.06;5087347;28;20584;-75
2022/04/02 02:01:16;;;;;;;29.10;17.63;;;;;;;-1.51;100.00;94948.41;5107937;28;20561;-75
2022/04/02 02:03:42;;;;;;;29.57;18.13;;;;;;;-1.52;100.00;94951.94;5100695;28;20502;-75
2022/04/02 02:06:08;;;;;;;22.77;17.00;;;;;;;-1.52;100.00;94951.94;5113598;28;20841;-76
2022/04/02 02:08:36;;;;;;;24.47;17.97;;;;;;;-1.55;100.00;94950.41;5096066;28;20095;-75
2022/04/02 02:11:41;;;;;;;25.83;18.20;;;;;;;-1.50;100.00;94953.47;5068040;28;20469;-75
2022/04/02 02:14:09;;;;;;;24.17;16.93;;;;;;;-1.53;100.00;94950.31;5103859;28;20524;-75
2022/04/02 02:16:38;;;;;;;24.47;16.47;;;;;;;-1.59;100.00;94950.78;5110013;28;20523;-75
2022/04/02 02:19:04;;;;;;;23.80;17.17;;;;;;;-1.62;100.00;94956.97;5122697;27;20450;-75
2022/04/02 02:21:30;;;;;;;25.67;16.73;;;;;;;-1.64;100.00;94952.88;5102777;28;20032;-75
2022/04/02 02:23:56;;;;;;;24.80;16.70;;;;;;;-1.73;100.00;94960.38;5099176;28;20450;-77
2022/04/02 02:26:23;;;;;;;28.53;15.43;;;;;;;-1.75;100.00;94961.41;5108232;27;20477;-75
2022/04/02 02:28:48;;;;;;;22.20;15.40;;;;;;;-1.79;100.00;94957.44;5096466;28;20042;-75
2022/04/02 02:31:34;;;;;;;25.07;15.17;;;;;;;-1.77;100.00;94960.72;5087442;28;20446;-74
2022/04/02 02:36:52;;;;;;;24.33;16.53;;;;;;;-1.81;100.00;94967.88;5114095;28;20027;-76
2022/04/02 02:39:18;;;;;;;29.83;16.27;;;;;;;-1.89;100.00;94959.88;5101294;27;21479;-75
2022/04/02 02:41:54;;;;;;;24.27;17.63;;;;;;;-1.92;100.00;94960.09;5112637;27;20482;-76
2022/04/02 02:44:32;;;;;;;22.97;15.70;;;;;;;-1.93;100.00;94966.19;5113637;27;20480;-75
2022/04/02 02:47:11;;;;;;;27.00;16.07;;;;;;;-1.98;100.00;94961.41;5109750;28;20458;-75
2022/04/02 02:49:40;;;;;;;28.23;16.10;;;;;;;-2.00;100.00;94972.75;5108590;28;20464;-76
2022/04/02 02:52:09;;;;;;;26.10;15.57;;;;;;;-1.98;100.00;94976.00;5114798;28;20437;-75
2022/04/02 02:54:35;;;;;;;23.60;15.67;;;;;;;-2.01;100.00;94977.09;5113171;27;20470;-75
2022/04/02 02:57:03;;;;;;;23.80;15.17;;;;;;;-1.98;100.00;94971.72;5095781;28;21025;-75
2022/04/02 02:59:29;;;;;;;28.00;16.23;;;;;;;-2.08;100.00;94975.06;5095962;28;20775;-75
2022/04/02 03:01:56;;;;;;;21.13;13.43;;;;;;;-2.05;100.00;94975.66;5107371;28;20592;-75
2022/04/02 03:04:23;;;;;;;27.03;13.70;;;;;;;-2.08;100.00;94977.63;5112990;28;20446;-76
2022/04/02 03:06:52;;;;;;;25.10;13.97;;;;;;;-2.12;100.00;94977.03;5121077;27;21043;-76
2022/04/02 03:09:20;;;;;;;23.37;13.87;;;;;;;-2.11;100.00;94980.44;5106359;28;20437;-76
2022/04/02 03:11:46;;;;;;;30.10;14.13;;;;;;;-2.18;100.00;94985.22;5113339;28;20513;-75
2022/04/02 03:14:13;;;;;;;22.83;13.63;;;;;;;-2.05;100.00;94987.72;5112739;28;20437;-75
2022/04/02 03:16:40;;;;;;;28.93;12.53;;;;;;;-2.22;100.00;94994.91;5091314;28;20457;-75
2022/04/02 03:19:11;;;;;;;22.63;11.80;;;;;;;-2.26;100.00;94987.53;5113348;28;20473;-75
2022/04/02 03:21:37;;;;;;;22.67;12.13;;;;;;;-2.29;100.00;94983.44;5112234;28;20493;-75
2022/04/02 03:24:03;;;;;;;16.93;10.30;;;;;;;-2.28;100.00;94990.25;5097268;28;20460;-75
2022/04/02 03:26:34;;;;;;;26.30;11.17;;;;;;;-2.29;100.00;94995.47;5113265;28;20031;-76
2022/04/02 03:29:05;;;;;;;27.10;12.10;;;;;;;-2.31;100.00;94987.88;5113370;28;21214;-75
2022/04/02 03:31:31;;;;;;;23.40;11.43;;;;;;;-2.33;100.00;94987.16;5111832;28;21333;-75
2022/04/02 03:33:58;;;;;;;20.93;11.23;;;;;;;-2.30;100.00;94993.84;5098079;28;20453;-75
2022/04/02 03:36:24;;;;;;;17.87;10.90;;;;;;;-2.32;100.00;94993.94;5113251;28;20549;-75
2022/04/02 03:38:50;;;;;;;24.20;11.67;;;;;;;-2.33;100.00;95000.03;5112526;28;20461;-75
2022/04/02 03:41:17;;;;;;;21.23;11.87;;;;;;;-2.34;100.00;94990.69;5112827;28;20540;-75
2022/04/02 03:43:46;;;;;;;19.63;12.17;;;;;;;-2.29;100.00;94998.88;5111472;28;20478;-75
2022/04/02 03:48:59;;;;;;;25.23;13.33;;;;;;;-2.29;100.00;95000.63;5119860;27;20477;-75
2022/04/02 03:51:26;;;;;;;25.73;13.77;;;;;;;-2.26;100.00;95000.41;5094713;28;20500;-75
2022/04/02 03:53:52;;;;;;;24.53;13.53;;;;;;;-2.25;100.00;95004.63;5114731;28;20497;-75
2022/04/02 03:56:20;;;;;;;27.60;13.87;;;;;;;-2.30;100.00;95004.97;5104613;28;20038;-76
2022/04/02 03:58:56;;;;;;;18.93;12.77;;;;;;;-2.25;100.00;95005.44;5114591;28;21016;-76
2022/04/02 04:01:23;;;;;;;23.80;12.13;;;;;;;-2.28;100.00;95005.69;5104018;28;20470;-75
2022/04/02 04:03:49;;;;;;;20.03;11.50;;;;;;;-2.24;100.00;95012.25;5098635;28;20516;-76
2022/04/02 04:06:16;;;;;;;21.43;12.00;;;;;;;-2.31;100.00;95012.78;5115344;28;20445;-75
2022/04/02 04:08:42;;;;;;;22.57;12.10;;;;;;;-2.24;100.00;95016.59;5097198;28;20515;-75
2022/04/02 04:11:10;;;;;;;18.77;12.13;;;;;;;-2.24;100.00;95012.25;5112342;28;20501;-75
2022/04/02 04:13:38;;;;;;;20.93;12.17;;;;;;;-2.22;100.00;95019.84;5114775;28;20464;-75
2022/04/02 04:16:07;;;;;;;20.23;12.00;;;;;;;-2.26;100.00;95023.59;5112843;28;20753;-75
2022/04/02 04:18:35;;;;;;;19.07;10.83;;;;;;;-2.26;100.00;95026.97;5098080;28;20449;-76
2022/04/02 04:21:00;;;;;;;21.33;13.13;;;;;;;-2.22;100.00;95023.25;5100048;28;20469;-75
2022/04/02 04:23:29;;;;;;;16.80;10.87;;;;;;;-2.23;100.00;95031.91;5089900;28;20051;-76
2022/04/02 04:25:59;;;;;;;24.43;11.30;;;;;;;-2.26;100.00;95039.03;5091287;28;20478;-75
2022/04/02 04:28:26;;;;;;;18.23;11.60;;;;;;;-2.26;100.00;95039.84;5107549;28;20518;-75
2022/04/02 04:30:55;;;;;;;17.13;11.33;;;;;;;-2.31;100.00;95038.53;5102930;28;20454;-75
2022/04/02 04:33:20;;;;;;;23.90;10.97;;;;;;;-2.29;100.00;95039.25;5104686;28;20449;-75
2022/04/02 04:35:46;;;;;;;16.77;11.20;;;;;;;-2.27;100.00;95043.38;5103223;28;20814;-75
2022/04/02 04:38:13;;;;;;;23.30;11.37;;;;;;;-2.26;100.00;95041.63;5114816;28;20064;-75
2022/04/02 04:40:39;;;;;;;16.63;10.47;;;;;;;-2.29;100.00;95041.84;5109358;28;21282;-76
2022/04/02 04:43:07;;;;;;;17.10;9.73;;;;;;;-2.38;100.00;95043.34;5110609;28;20468;-76
2022/04/02 04:45:40;;;;;;;16.53;9.83;;;;;;;-2.36;100.00;95056.91;5111124;28;20446;-76
2022/04/02 04:48:06;;;;;;;16.57;10.17;;;;;;;-2.37;100.00;95052.69;5112747;28;20569;-75
2022/04/02 04:50:39;;;;;;;18.87;10.20;;;;;;;-2.39;100.00;95049.41;5104284;28;20465;-75
2022/04/02 04:53:04;;;;;;;15.90;9.97;;;;;;;-2.40;100.00;95050.34;5114941;28;20595;-76
2022/04/02 04:55:31;;;;;;;15.17;9.83;;;;;;;-2.42;100.00;95058.16;5114532;28;20099;-75
2022/04/02 04:57:58;;;;;;;17.23;9.07;;;;;;;-2.45;100.00;95060.13;5101071;28;21098;-75
2022/04/02 05:00:27;;;;;;;18.27;10.10;;;;;;;-2.40;100.00;95063.22;5108901;28;20472;-75
2022/04/02 05:02:53;;;;;;;17.33;10.20;;;;;;;-2.37;100.00;95068.13;5095189;28;20466;-76
2022/04/02 05:05:28;;;;;;;22.27;8.68;;;;;;;-2.44;100.00;95072.09;5102362;28;20458;-75
2022/04/02 05:07:54;;;;;;;22.40;11.23;;;;;;;-2.37;100.00;95063.00;5090233;28;20592;-75
2022/04/02 05:10:22;;;;;;;19.47;10.57;;;;;;;-2.40;100.00;95070.94;5106681;28;20807;-75
2022/04/02 05:12:48;;;;;;;16.87;9.67;;;;;;;-2.39;100.00;95075.97;5116733;28;20461;-76
2022/04/02 05:15:15;;;;;;;20.33;8.87;;;;;;;-2.35;100.00;95068.00;5104193;28;20452;-75
2022/04/02 05:17:44;;;;;;;19.67;9.77;;;;;;;-2.40;100.00;95087.19;5115134;28;20477;-75
2022/04/02 05:20:14;;;;;;;16.00;9.47;;;;;;;-2.32;100.00;95089.22;5099584;28;20446;-76
2022/04/02 05:22:42;;;;;;;19.70;10.03;;;;;;;-2.41;100.00;95085.56;5097176;28;20481;-75
2022/04/02 05:25:14;;;;;;;22.87;10.13;;;;;;;-2.33;100.00;95085.00;5110647;28;20530;-76
2022/04/02 05:27:43;;;;;;;13.93;9.07;;;;;;;-2.37;100.00;95088.75;5098563;28;20811;-76
2022/04/02 05:30:11;;;;;;;24.43;10.63;;;;;;;-2.36;100.00;95087.81;5115623;28;20032;-76
2022/04/02 05:32:37;;;;;;;22.83;10.70;;;;;;;-2.26;100.00;95093.13;5109605;28;20422;-76
2022/04/02 05:35:05;;;;;;;19.30;10.37;;;;;;;-2.29;100.00;95101.06;5119189;28;20457;-76
2022/04/02 05:37:30;;;;;;;18.20;10.03;;;;;;;-2.23;100.00;95106.59;5118257;28;20465;-75
2022/04/02 05:39:56;;;;;;;17.33;9.93;;;;;;;-2.11;100.00;95104.06;5104350;28;20462;-75
2022/04/02 05:42:23;;;;;;;15.90;9.43;;;;;;;-2.09;100.00;95108.19;5110838;28;20042;-76
2022/04/02 05:44:49;;;;;;;18.33;9.90;;;;;;;-2.14;100.00;95110.28;5096434;28;20103;-76
2022/04/02 05:47:15;;;;;;;16.73;9.70;;;;;;;-2.13;100.00;95112.72;5107954;28;20569;-75
2022/04/02 05:49:41;;;;;;;18.73;9.70;;;;;;;-1.95;100.00;95125.22;5102890;28;20043;-76
2022/04/02 05:52:07;;;;;;;18.23;11.57;;;;;;;-1.91;100.00;95118.94;5110096;28;20035;-75
2022/04/02 05:54:36;;;;;;;15.67;9.40;;;;;;;-1.87;100.00;95122.13;5119728;27;20533;-76
2022/04/02 05:57:04;;;;;;;14.17;9.27;;;;;;;-1.83;100.00;95126.91;5114718;27;20504;-75
2022/04/02 05:59:30;;;;;;;13.37;9.13;;;;;;;-1.81;100.00;95121.66;5122708;27;20461;-76
2022/04/02 06:01:56;;;;;;;14.90;8.80;;;;;;;-1.67;100.00;95130.03;5115366;28;20484;-76
2022/04/02 06:04:23;;;;;;;20.30;11.87;;;;;;;-1.76;100.00;95129.88;5110393;28;20140;-76
2022/04/02 06:06:49;;;;;;;14.60;10.43;;;;;;;-1.77;100.00;95131.63;5114671;28;20079;-76
2022/04/02 06:09:15;;;;;;;17.10;9.20;;;;;;;-1.59;100.00;95132.03;5115542;28;20491;-76
2022/04/02 06:11:41;;;;;;;20.47;9.00;;;;;;;-1.58;100.00;95135.44;5121644;27;20027;-75
2022/04/02 06:14:06;;;;;;;14.20;9.03;;;;;;;-1.50;100.00;95135.72;5115385;27;20465;-75
2022/04/02 06:16:32;;;;;;;13.77;8.67;;;;;;;-1.59;100.00;95136.38;5108519;28;20031;-76
2022/04/02 06:18:58;;;;;;;14.50;8.93;;;;;;;-1.49;100.00;95134.78;5132639;27;20035;-76
2022/04/02 06:21:23;;;;;;;13.77;9.63;;;;;;;-1.73;100.00;95145.94;5089891;28;20027;-76
2022/04/02 06:23:49;;;;;;;14.77;8.80;;;;;;;-1.56;100.00;95155.03;5094795;28;20494;-76
2022/04/02 06:26:15;;;;;;;12.33;8.20;;;;;;;-1.67;100.00;95155.00;5117761;27;20074;-76
2022/04/02 06:28:42;;;;;;;10.67;7.73;;;;;;;-1.56;100.00;95154.22;5097426;28;20764;-76
2022/04/02 06:31:08;;;;;;;13.00;8.17;;;;;;;-1.71;100.00;95166.44;5113327;28;20057;-76
2022/04/02 06:33:40;;;;;;;15.17;10.27;;;;;;;-1.49;100.00;95152.81;5099517;28;20461;-76
2022/04/02 06:36:08;;;;;;;14.57;8.27;;;;;;;-1.50;100.00;95156.34;5114108;28;20465;-76
2022/04/02 06:38:34;;;;;;;11.03;7.80;;;;;;;-1.75;100.00;95155.53;5113178;28;20473;-76
2022/04/02 06:41:00;;;;;;;12.47;8.10;;;;;;;-1.67;100.00;95160.97;5112226;28;20485;-75
2022/04/02 06:43:26;;;;;;;12.10;7.60;;;;;;;-1.66;100.00;95164.38;5096309;28;20473;-75
2022/04/02 06:45:56;;;;;;;13.97;9.83;;;;;;;-1.51;100.00;95167.56;5113313;28;20381;-76
2022/04/02 06:48:22;;;;;;;14.67;6.93;;;;;;;-1.54;100.00;95170.38;5092352;28;20512;-76
2022/04/02 06:50:48;;;;;;;11.00;7.87;;;;;;;-1.56;100.00;95172.25;5109084;28;20043;-76
2022/04/02 06:53:14;;;;;;;12.47;8.43;;;;;;;-1.44;100.00;95173.94;5094275;28;20484;-76
2022/04/02 06:55:40;;;;;;;12.43;7.30;;;;;;;-1.49;100.00;95176.03;5115639;28;20051;-76
2022/04/02 06:58:06;;;;;;;13.63;7.47;;;;;;;-1.50;100.00;95176.97;5104181;28;20032;-75
2022/04/02 07:00:31;;;;;;;15.17;7.93;;;;;;;-1.24;100.00;95173.31;5108794;28;20119;-76
2022/04/02 07:02:57;;;;;;;14.00;7.30;;;;;;;-1.17;100.00;95173.66;5104274;27;20501;-76
2022/04/02 07:05:23;;;;;;;10.23;6.57;;;;;;;-1.24;100.00;95183.63;5105426;28;20480;-76
2022/04/02 07:07:51;;;;;;;17.50;7.27;;;;;;;-1.33;100.00;95178.31;5102190;28;20129;-75
2022/04/02 07:10:17;;;;;;;13.70;9.07;;;;;;;-1.25;100.00;95187.13;5106974;27;20059;-75
2022/04/02 07:12:44;;;;;;;12.77;8.00;;;;;;;-1.03;100.00;95190.69;5102648;28;20462;-75
2022/04/02 07:15:10;;;;;;;12.77;7.23;;;;;;;-0.85;100.00;95189.31;5112053;28;20035;-76
2022/04/02 07:17:35;;;;;;;11.00;7.63;;;;;;;-0.85;100.00;95203.97;5107262;28;20517;-75
2022/04/02 07:20:03;;;;;;;11.77;7.07;;;;;;;-0.89;100.00;95207.72;5109086;28;20458;-76
2022/04/02 07:22:28;;;;;;;11.37;7.97;;;;;;;-0.79;100.00;95209.50;5113100;28;20035;-77
2022/04/02 07:24:56;;;;;;;12.63;8.30;;;;;;;-0.64;100.00;95206.69;5112475;28;20448;-75
2022/04/02 07:27:23;;;;;;;13.63;7.87;;;;;;;-0.58;100.00;95208.81;5112096;28;20081;-75
2022/04/02 07:29:52;;;;;;;13.07;7.10;;;;;;;-0.52;100.00;95206.59;5111368;28;20453;-75
2022/04/02 07:32:19;;;;;;;14.27;7.40;;;;;;;-0.62;100.00;95210.00;5100782;28;20453;-75
2022/04/02 07:34:44;;;;;;;15.03;8.27;;;;;;;-0.42;100.00;95231.72;5111788;28;20453;-75
2022/04/02 07:37:28;;;;;;;12.10;7.37;;;;;;;-0.91;100.00;95220.72;5103531;28;20477;-74
2022/04/02 07:40:12;;;;;;;9.53;7.17;;;;;;;-0.63;100.00;95227.25;5105356;28;20274;-75
2022/04/02 07:42:53;;;;;;;14.48;7.50;;;;;;;-0.58;100.00;95226.91;5101467;28;20451;-75
2022/04/02 07:45:34;;;;;;;15.10;9.90;;;;;;;-0.67;100.00;95225.00;5111940;28;20055;-77
2022/04/02 07:48:06;;;;;;;13.03;8.50;;;;;;;-0.18;100.00;95235.00;5107055;27;21095;-76
2022/04/02 07:50:33;;;;;;;9.70;6.90;;;;;;;-0.28;100.00;95246.97;5103889;28;20940;-76
2022/04/02 07:53:00;;;;;;;9.77;7.23;;;;;;;-0.26;100.00;95240.75;5095382;27;20496;-75
2022/04/02 07:55:30;;;;;;;14.83;7.43;;;;;;;-0.11;100.00;95243.09;5092494;28;20486;-75
2022/04/02 07:58:01;;;;;;;11.70;8.67;;;;;;;-0.18;100.00;95253.09;5115749;27;20468;-75
2022/04/02 08:00:28;;;;;;;13.67;7.30;;;;;;;-0.33;100.00;95260.25;5106513;28;20473;-75
2022/04/02 08:02:54;;;;;;;10.07;7.30;;;;;;;-0.56;100.00;95261.19;5112435;28;20461;-75
2022/04/02 08:05:22;;;;;;;13.73;9.13;;;;;;;-0.52;100.00;95262.59;5110501;28;20469;-75
2022/04/02 08:07:57;;;;;;;15.73;9.43;;;;;;;-0.30;100.00;95267.78;5109354;28;20843;-76
2022/04/02 08:10:30;;;;;;;14.33;9.80;;;;;;;-0.16;100.00;95273.66;5110050;28;20461;-76
2022/04/02 08:12:57;;;;;;;11.97;8.27;;;;;;;-0.14;100.00;95276.94;5106331;27;20799;-76
2022/04/02 08:15:24;;;;;;;15.77;8.87;;;;;;;-0.32;100.00;95268.84;5108262;28;20655;-75
2022/04/02 08:17:55;;;;;;;10.30;7.27;;;;;;;-0.33;100.00;95280.94;5102097;28;20449;-76
2022/04/02 08:20:22;;;;;;;14.13;9.57;;;;;;;-0.54;100.00;95282.53;5110453;28;20445;-75
2022/04/02 08:22:48;;;;;;;13.73;9.77;;;;;;;-0.03;100.00;95285.53;5103792;28;20465;-75
2022/04/02 08:25:16;;;;;;;13.50;7.73;;;;;;;-0.09;100.00;95288.56;5109086;28;20544;-75
2022/04/02 08:27:59;;;;;;;13.60;9.07;;;;;;;-0.40;100.00;95292.66;5109996;28;20559;-75
2022/04/02 08:30:38;;;;;;;10.40;6.87;;;;;;;-0.05;100.00;95296.91;5112965;28;20485;-76
2022/04/02 08:33:22;;;;;;;12.80;7.60;;;;;;;-0.19;100.00;95299.72;5129233;28;20956;-75
2022/04/02 08:35:56;;;;;;;11.80;7.67;;;;;;;-0.19;100.00;95302.31;5096786;28;20485;-75
2022/04/02 08:38:40;;;;;;;;;;;;;;;0.25;100.00;95305.84;5114552;28;20457;-76
2022/04/02 08:41:26;;;;;;;11.20;7.10;;;;;;;0.09;100.00;95314.75;5111151;28;19919;-76
2022/04/02 08:44:11;;;;;;;12.40;8.50;;;;;;;0.26;100.00;95315.22;5112455;28;20404;-75
2022/04/02 08:46:45;;;;;;;10.47;6.77;;;;;;;0.11;100.00;95328.41;5106943;28;20469;-73
2022/04/02 08:49:39;;;;;;;12.17;7.50;;;;;;;0.56;100.00;95312.00;5096199;28;20473;-75
2022/04/02 08:52:14;;;;;;;9.80;7.10;;;;;;;0.33;100.00;95330.13;5112210;28;20444;-75
2022/04/02 08:54:58;;;;;;;10.63;6.27;;;;;;;0.28;100.00;95334.03;5096024;28;20463;-75
2022/04/02 08:57:42;;;;;;;14.27;7.47;;;;;;;0.58;100.00;95334.25;5103580;28;20548;-77
2022/04/02 09:00:10;;;;;;;;;;;;;;;0.81;100.00;95336.78;5110827;28;20466;-76
2022/04/02 09:02:54;;;;;;;12.40;7.53;;;;;;;1.33;100.00;95337.75;5098778;28;20135;-75
2022/04/02 09:05:54;;;;;;;11.23;6.63;;;;;;;2.17;100.00;95335.94;5112828;28;20473;-76
2022/04/02 09:08:44;;;;;;;14.13;8.70;;;;;;;0.98;100.00;95344.03;5110829;28;20474;-76
2022/04/02 09:11:32;;;;;;;12.67;8.47;;;;;;;0.77;100.00;95354.31;5095144;28;20453;-76
2022/04/02 09:14:16;;;;;;;13.63;8.63;;;;;;;1.28;100.00;95358.88;5115813;27;20544;-76
2022/04/02 09:17:06;;;;;;;9.97;7.20;;;;;;;0.72;100.00;95358.22;5110831;28;20505;-75
2022/04/02 09:19:54;;;;;;;11.90;7.93;;;;;;;0.58;100.00;95369.63;5106604;28;20421;-75
2022/04/02 09:22:38;;;;;;;14.20;7.37;;;;;;;0.19;100.00;95370.00;5122142;27;21208;-76
2022/04/02 09:25:04;;;;;;;;;;;;;;;0.16;100.00;95375.38;5108919;28;20442;-76
2022/04/02 09:27:38;;;;;;;15.53;7.67;;;;;;;0.59;100.00;95385.03;5108184;28;19919;-76
2022/04/02 09:30:32;;;;;;;12.70;7.33;;;;;;;0.21;100.00;95381.06;5114227;27;20041;-75
2022/04/02 09:33:16;;;;;;;10.32;7.25;;;;;;;-0.24;100.00;95383.56;5114018;28;21012;-75
2022/04/02 09:35:47;;;;;;;12.00;8.23;;;;;;;0.09;100.00;95391.50;5113834;28;20058;-76
2022/04/02 09:38:33;;;;;;;14.30;9.50;;;;;;;-0.08;100.00;95385.00;5116270;28;20651;-76
2022/04/02 09:41:36;;;;;;;15.53;8.73;;;;;;;-0.12;100.00;95396.53;5105205;28;20895;-76
2022/04/02 09:44:35;;;;;;;12.50;7.97;;;;;;;-0.21;100.00;95403.19;5104468;28;20556;-75
2022/04/02 09:47:18;;;;;;;19.87;10.80;;;;;;;-0.09;100.00;95398.88;5116168;28;21096;-75
2022/04/02 09:49:52;;;;;;;19.00;11.33;;;;;;;0.43;100.00;95400.91;5093143;28;20553;-76
2022/04/02 09:52:22;;;;;;;11.63;7.63;;;;;;;0.13;100.00;95398.06;5099631;28;20509;-75
2022/04/02 09:54:59;;;;;;;14.13;9.50;;;;;;;0.19;100.00;95406.19;5120184;28;20471;-76
2022/04/02 09:57:45;;;;;;;12.87;9.13;;;;;;;0.28;100.00;95401.28;5114486;28;20509;-75
2022/04/02 10:00:13;;;;;;;13.20;7.93;;;;;;;0.07;100.00;95408.88;5119606;27;20469;-77
2022/04/02 10:03:02;;;;;;;11.73;7.90;;;;;;;0.43;100.00;95400.91;5112002;28;20477;-75
2022/04/02 10:06:06;;;;;;;11.73;7.77;;;;;;;-0.09;100.00;95412.63;5104958;28;20465;-72
2022/04/02 10:08:39;;;;;;;;;;;;;;;1.24;100.00;95419.63;5105819;28;20459;-73
2022/04/02 10:11:08;;;;;;;9.70;7.13;;;;;;;0.96;100.00;95410.63;5109757;28;19937;-73
2022/04/02 10:13:35;;;;;;;11.50;8.43;;;;;;;0.50;100.00;95419.38;5101387;28;20457;-73
2022/04/02 10:16:04;;;;;;;11.70;8.37;;;;;;;0.04;100.00;95424.63;5108656;28;20454;-73
2022/04/02 10:18:34;;;;;;;16.20;10.07;;;;;;;0.52;100.00;95416.66;5097697;27;20494;-73
2022/04/02 10:21:05;;;;;;;10.27;7.37;;;;;;;0.32;100.00;95424.19;5127641;27;20454;-73
2022/04/02 10:23:35;;;;;;;13.43;7.97;;;;;;;0.49;100.00;95420.31;5110407;28;20496;-73
2022/04/02 10:26:16;;;;;;;10.37;6.33;;;;;;;-0.53;100.00;95428.81;5112908;27;20469;-73
2022/04/02 10:28:52;;;;;;;11.40;7.90;;;;;;;-0.17;100.00;95434.78;5086035;28;21045;-73
2022/04/02 10:31:33;;;;;;;13.23;7.30;;;;;;;0.05;100.00;95437.44;5092663;28;21100;-73
2022/04/02 10:34:09;;;;;;;10.93;7.27;;;;;;;-0.41;100.00;95445.97;5101096;28;21083;-71
2022/04/02 10:36:40;;;;;;;14.03;8.47;;;;;;;-0.21;100.00;95436.78;5111401;28;21032;-73
2022/04/02 10:39:07;;;;;;;12.87;9.10;;;;;;;0.28;100.00;95445.22;5108442;28;20564;-73
2022/04/02 10:41:38;;;;;;;47.27;23.10;;;;;;;-0.08;100.00;95442.69;5108960;28;20841;-72
2022/04/02 10:44:10;;;;;;;13.30;9.90;;;;;;;-0.10;100.00;95447.16;5111059;28;21002;-72
2022/04/02 10:46:40;;;;;;;16.27;8.67;;;;;;;0.01;100.00;95443.78;5105886;28;20480;-72
2022/04/02 10:49:11;;;;;;;12.10;8.60;;;;;;;0.53;100.00;95452.75;5112154;28;20429;-74
2022/04/02 10:51:40;;;;;;;13.30;9.10;;;;;;;0.89;100.00;95458.66;5104575;28;20847;-73
2022/04/02 10:54:12;;;;;;;11.53;8.13;;;;;;;0.83;100.00;95452.16;5099893;28;20530;-72
2022/04/02 10:56:41;;;;;;;14.35;9.30;;;;;;;0.56;100.00;95460.28;5086859;28;20875;-73
2022/04/02 10:59:09;;;;;;;14.30;8.63;;;;;;;0.60;100.00;95455.69;5092142;28;20039;-73
2022/04/02 11:01:40;;;;;;;18.30;12.03;;;;;;;-0.18;100.00;95456.41;5117718;27;20482;-73
2022/04/02 11:04:19;;;;;;;12.33;8.57;;;;;;;-0.12;100.00;95463.72;5095749;28;20474;-73
2022/04/02 11:06:48;;;;;;;16.67;10.93;;;;;;;0.23;100.00;95467.09;5110395;28;20462;-73
2022/04/02 11:09:36;;;;;;;14.50;9.03;;;;;;;0.57;100.00;95466.28;5110252;28;20479;-72
2022/04/02 11:12:15;;;;;;;18.07;12.70;;;;;;;0.91;100.00;95472.31;5088808;28;20448;-73
2022/04/02 11:14:42;;;;;;;14.60;10.00;;;;;;;0.56;100.00;95472.41;5106753;27;20462;-73
2022/04/02 11:17:09;;;;;;;16.97;11.80;;;;;;;0.50;100.00;95468.50;5112681;27;21012;-73
2022/04/02 11:19:56;;;;;;;31.97;16.47;;;;;;;0.88;100.00;95475.94;5112104;28;20560;-73
2022/04/02 11:22:28;;;;;;;18.90;12.07;;;;;;;0.36;100.00;95482.50;5111441;28;20475;-74
2022/04/02 11:25:29;;;;;;;18.07;12.27;;;;;;;0.18;100.00;95483.88;5082393;28;20472;-73
2022/04/02 11:28:00;;;;;;;17.03;10.00;;;;;;;0.20;100.00;95477.66;5107026;28;20473;-73
2022/04/02 11:30:31;;;;;;;15.43;10.37;;;;;;;0.79;100.00;95494.75;5108336;28;20498;-73
2022/04/02 11:33:07;;;;;;;12.40;8.73;;;;;;;0.91;100.00;95498.19;5107172;28;20459;-74
2022/04/02 11:35:44;;;;;;;15.03;9.63;;;;;;;0.82;100.00;95496.31;5088662;28;20534;-74
2022/04/02 11:38:25;;;;;;;15.43;10.30;;;;;;;0.57;100.00;95494.75;5089527;28;20470;-73
2022/04/02 11:41:00;;;;;;;15.77;9.80;;;;;;;0.56;100.00;95496.50;5109229;28;20440;-73